<?xml version='1.0' encoding='UTF-8'?><gpx version="1.1" creator="JPX - https://github.com/jenetics/jpx" xmlns="http://www.topografix.com/GPX/1/1"><trk><trkseg><trkpt lat="45.92887914754765" lon="10.254384936353809"><ele>311.0</ele><time>2026-05-03T20:08:43.003Z</time></trkpt><trkpt lat="45.92889603477425" lon="10.25427533199273"><ele>311.0</ele><time>2026-05-03T20:08:46.003Z</time></trkpt><trkpt lat="45.9288957798574" lon="10.254156028372016"><ele>311.0</ele><time>2026-05-03T20:08:49.003Z</time></trkpt><trkpt lat="45.9289059156483" lon="10.254061301320423"><ele>311.0</ele><time>2026-05-03T20:08:52.003Z</time></trkpt><trkpt lat="45.92891467127729" lon="10.253968778143859"><ele>311.0</ele><time>2026-05-03T20:08:55.003Z</time></trkpt><trkpt lat="45.92893499741766" lon="10.253850804752961"><ele>311.0</ele><time>2026-05-03T20:08:58.001Z</time></trkpt><trkpt lat="45.928954382441674" lon="10.25375871282314"><ele>311.0</ele><time>2026-05-03T20:09:00.001Z</time></trkpt><trkpt lat="45.92899807068259" lon="10.253686827066684"><ele>312.33333333333337</ele><time>2026-05-03T20:09:02.001Z</time></trkpt><trkpt lat="45.9290491970284" lon="10.253616126007083"><ele>313.6666666666667</ele><time>2026-05-03T20:09:08Z</time></trkpt><trkpt lat="45.9291166066499" lon="10.253535412015014"><ele>315.0</ele><time>2026-05-03T20:09:10Z</time></trkpt><trkpt lat="45.92916597533267" lon="10.253447654599185"><ele>316.3333333333333</ele><time>2026-05-03T20:09:13Z</time></trkpt><trkpt lat="45.92923315192854" lon="10.25337185081883"><ele>317.66666666666663</ele><time>2026-05-03T20:09:17Z</time></trkpt><trkpt lat="45.92929310610397" lon="10.253297862973568"><ele>319.0</ele><time>2026-05-03T20:09:19Z</time></trkpt><trkpt lat="45.92933831479337" lon="10.253232681085956"><ele>319.0</ele><time>2026-05-03T20:09:21Z</time></trkpt><trkpt lat="45.92936327258861" lon="10.253141634121393"><ele>319.0</ele><time>2026-05-03T20:09:23Z</time></trkpt><trkpt lat="45.92939527963665" lon="10.253024435709312"><ele>319.0</ele><time>2026-05-03T20:09:26Z</time></trkpt><trkpt lat="45.92943036720573" lon="10.252924081262915"><ele>319.0</ele><time>2026-05-03T20:09:30.001Z</time></trkpt><trkpt lat="45.92942229897525" lon="10.25302486532142"><ele>319.0</ele><time>2026-05-03T20:10:14.002Z</time></trkpt><trkpt lat="45.92939334854659" lon="10.253118645452329"><ele>319.0</ele><time>2026-05-03T20:10:17.002Z</time></trkpt><trkpt lat="45.92937632122974" lon="10.253233998026966"><ele>319.0</ele><time>2026-05-03T20:10:20.002Z</time></trkpt><trkpt lat="45.92934397812041" lon="10.253338406055224"><ele>319.0</ele><time>2026-05-03T20:10:23.002Z</time></trkpt><trkpt lat="45.92927473978503" lon="10.253385892518033"><ele>319.0</ele><time>2026-05-03T20:10:25.002Z</time></trkpt><trkpt lat="45.929218235461164" lon="10.253434834823233"><ele>319.0</ele><time>2026-05-03T20:10:27.002Z</time></trkpt><trkpt lat="45.92916082094912" lon="10.253477885161557"><ele>319.0</ele><time>2026-05-03T20:10:29.002Z</time></trkpt><trkpt lat="45.92909575813414" lon="10.253526694581499"><ele>319.0</ele><time>2026-05-03T20:10:32.002Z</time></trkpt><trkpt lat="45.929058931114085" lon="10.253611290278885"><ele>319.0</ele><time>2026-05-03T20:10:35.002Z</time></trkpt><trkpt lat="45.929002334831225" lon="10.253710365821785"><ele>317.4</ele><time>2026-05-03T20:10:37.002Z</time></trkpt><trkpt lat="45.92896038829135" lon="10.25381363217731"><ele>315.79999999999995</ele><time>2026-05-03T20:10:41.002Z</time></trkpt><trkpt lat="45.928935741663146" lon="10.253958134233102"><ele>314.20000000000005</ele><time>2026-05-03T20:10:44.002Z</time></trkpt><trkpt lat="45.928923460880135" lon="10.254129184787889"><ele>312.6</ele><time>2026-05-03T20:10:48.002Z</time></trkpt><trkpt lat="45.92890535879938" lon="10.254245168709224"><ele>311.0</ele><time>2026-05-03T20:10:50.002Z</time></trkpt><trkpt lat="45.92889107803937" lon="10.254349645494758"><ele>311.0</ele><time>2026-05-03T20:10:52.003Z</time></trkpt><trkpt lat="45.92887509791238" lon="10.25445948023529"><ele>311.0</ele><time>2026-05-03T20:10:54.003Z</time></trkpt><trkpt lat="45.92885678476799" lon="10.254559391121168"><ele>311.0</ele><time>2026-05-03T20:10:56.003Z</time></trkpt><trkpt lat="45.9288225813042" lon="10.254680875777025"><ele>311.0</ele><time>2026-05-03T20:10:59.003Z</time></trkpt><trkpt lat="45.928795103693" lon="10.254783952848292"><ele>311.0</ele><time>2026-05-03T20:11:02.003Z</time></trkpt><trkpt lat="45.92875284155581" lon="10.254882050655254"><ele>311.0</ele><time>2026-05-03T20:11:05.999Z</time></trkpt><trkpt lat="45.928714090525254" lon="10.254953594407603"><ele>311.0</ele><time>2026-05-03T20:11:08.999Z</time></trkpt><trkpt lat="45.928667915366525" lon="10.255066982969675"><ele>311.0</ele><time>2026-05-03T20:11:11.999Z</time></trkpt><trkpt lat="45.92858468119055" lon="10.255107525965343"><ele>311.0</ele><time>2026-05-03T20:11:13.999Z</time></trkpt><trkpt lat="45.928512286349154" lon="10.255094325427084"><ele>311.0</ele><time>2026-05-03T20:11:16.999Z</time></trkpt><trkpt lat="45.928448088387846" lon="10.255068034258429"><ele>311.0</ele><time>2026-05-03T20:11:18.999Z</time></trkpt><trkpt lat="45.928372706283994" lon="10.255049903941105"><ele>311.0</ele><time>2026-05-03T20:11:23Z</time></trkpt><trkpt lat="45.928310092739686" lon="10.255079660140114"><ele>305.0</ele><time>2026-05-03T20:11:30Z</time></trkpt><trkpt lat="45.92827925965001" lon="10.255184709178447"><ele>299.0</ele><time>2026-05-03T20:11:33Z</time></trkpt><trkpt lat="45.928236546032096" lon="10.255263023413537"><ele>293.0</ele><time>2026-05-03T20:11:35Z</time></trkpt><trkpt lat="45.92816299949649" lon="10.255362610218443"><ele>287.0</ele><time>2026-05-03T20:11:37Z</time></trkpt><trkpt lat="45.92809521168884" lon="10.25542913906922"><ele>281.0</ele><time>2026-05-03T20:11:39Z</time></trkpt><trkpt lat="45.92799251765196" lon="10.255502364667937"><ele>275.0</ele><time>2026-05-03T20:11:41Z</time></trkpt><trkpt lat="45.92793135878346" lon="10.255532541648376"><ele>275.0</ele><time>2026-05-03T20:11:42Z</time></trkpt><trkpt lat="45.9278158503024" lon="10.255565386368612"><ele>275.0</ele><time>2026-05-03T20:11:44Z</time></trkpt><trkpt lat="45.92769562993024" lon="10.255578032467811"><ele>275.0</ele><time>2026-05-03T20:11:46.001Z</time></trkpt><trkpt lat="45.92759715390499" lon="10.255586208552465"><ele>275.0</ele><time>2026-05-03T20:11:48.001Z</time></trkpt><trkpt lat="45.927530884319445" lon="10.255560340327417"><ele>275.0</ele><time>2026-05-03T20:11:53.001Z</time></trkpt><trkpt lat="45.927506851631364" lon="10.255461434201312"><ele>276.0</ele><time>2026-05-03T20:11:56.001Z</time></trkpt><trkpt lat="45.9274438147501" lon="10.255466862390985"><ele>276.0</ele><time>2026-05-03T20:11:58.001Z</time></trkpt><trkpt lat="45.92731094268319" lon="10.255486923405753"><ele>276.0</ele><time>2026-05-03T20:12:00.001Z</time></trkpt><trkpt lat="45.927238182532854" lon="10.255484844379101"><ele>276.0</ele><time>2026-05-03T20:12:01.001Z</time></trkpt><trkpt lat="45.92717230674788" lon="10.255490271079855"><ele>276.0</ele><time>2026-05-03T20:12:02.001Z</time></trkpt><trkpt lat="45.927106551001216" lon="10.255493437522286"><ele>276.0</ele><time>2026-05-03T20:12:03.001Z</time></trkpt></trkseg></trk></gpx>